createdAt,value
2019-01-18T00:00:41.625Z,94958.3
2019-01-18T00:01:44.055Z,94965.4
2019-01-18T00:02:46.491Z,94960.3
2019-01-18T00:03:48.637Z,94961.3
2019-01-18T00:04:51.085Z,94959.8
2019-01-18T00:05:53.515Z,94957.9
2019-01-18T00:06:55.669Z,94953.5
2019-01-18T00:07:57.845Z,94954.7
2019-01-18T00:08:59.989Z,94957.4
2019-01-18T00:10:02.413Z,94960.6
2019-01-18T00:11:04.841Z,94963.3
2019-01-18T00:12:06.973Z,94963.4
2019-01-18T00:13:09.147Z,94965.2
2019-01-18T00:14:11.285Z,94970.8
2019-01-18T00:15:13.454Z,94965.1
2019-01-18T00:16:15.879Z,94969.4
2019-01-18T00:17:18.302Z,94966.8
2019-01-18T00:18:20.724Z,94971.3
2019-01-18T00:19:23.150Z,94965.6
2019-01-18T00:20:25.297Z,94970
2019-01-18T00:21:27.752Z,94971
2019-01-18T00:22:29.901Z,94969.9
2019-01-18T00:23:32.055Z,94973.3
2019-01-18T00:24:34.475Z,94969.1
2019-01-18T00:25:36.075Z,94974.9
2019-01-18T00:26:38.508Z,94977.6
2019-01-18T00:27:40.932Z,94979.1
2019-01-18T00:28:43.371Z,94974.9
2019-01-18T00:29:45.797Z,94981.8
2019-01-18T00:30:47.931Z,94978.3
2019-01-18T00:31:50.355Z,94975.7
2019-01-18T00:32:52.784Z,94976.4
2019-01-18T00:33:55.213Z,94974.8
2019-01-18T00:34:57.651Z,94981.1
2019-01-18T00:36:00.067Z,94977.5
2019-01-18T00:37:02.226Z,94981.5
2019-01-18T00:38:04.639Z,94981.8
2019-01-18T00:39:07.062Z,94980.2
2019-01-18T00:40:08.925Z,94980.7
2019-01-18T00:41:11.067Z,94986.4
2019-01-18T00:42:13.218Z,94982.3
2019-01-18T00:43:15.384Z,94989.8
2019-01-18T00:44:17.544Z,94985.1
2019-01-18T00:45:19.977Z,94986.4
2019-01-18T00:46:22.145Z,94992.7
2019-01-18T00:47:24.277Z,94986.8
2019-01-18T00:48:26.705Z,94988.4
2019-01-18T00:49:29.127Z,94987.2
2019-01-18T00:50:31.273Z,94979.2
2019-01-18T00:51:33.455Z,94984.5
2019-01-18T00:52:35.889Z,94986.1
2019-01-18T00:53:38.057Z,94985.7
2019-01-18T00:54:40.483Z,94991
2019-01-18T00:55:42.647Z,94987.4
2019-01-18T00:56:45.092Z,94994.6
2019-01-18T00:57:47.251Z,94999
2019-01-18T00:58:49.132Z,95001.8
2019-01-18T00:59:51.579Z,95015.8
2019-01-18T01:00:54.008Z,95026.9
2019-01-18T01:01:56.455Z,95040.8
2019-01-18T01:02:58.623Z,95036.5
2019-01-18T01:04:00.505Z,95031.3
2019-01-18T01:05:02.926Z,95037.7
2019-01-18T01:06:05.344Z,95037.2
2019-01-18T01:07:07.493Z,95049.3
2019-01-18T01:08:09.915Z,95057.3
2019-01-18T01:09:12.074Z,95059.7
2019-01-18T01:10:13.967Z,95054.8
2019-01-18T01:11:15.854Z,95050.4
2019-01-18T01:12:18.010Z,95046.2
2019-01-18T01:13:20.441Z,95050.2
2019-01-18T01:14:22.877Z,95051.2
2019-01-18T01:15:25.294Z,95050.6
2019-01-18T01:16:27.184Z,95051.6
2019-01-18T01:17:29.345Z,95048.4
2019-01-18T01:18:31.508Z,95051.1
2019-01-18T01:19:33.930Z,95045.9
2019-01-18T01:20:35.810Z,95040.8
2019-01-18T01:21:37.961Z,95044.5
2019-01-18T01:22:40.393Z,95038.2
2019-01-18T01:23:42.822Z,95035.2
2019-01-18T01:24:45.243Z,95036
2019-01-18T01:25:47.391Z,95033.4
2019-01-18T01:26:49.534Z,95034.2
2019-01-18T01:27:51.681Z,95039.6
2019-01-18T01:28:54.110Z,95033.5
2019-01-18T01:29:56.248Z,95037.8
2019-01-18T01:30:58.140Z,95034.8
2019-01-18T01:32:00.034Z,95047.1
2019-01-18T01:33:02.195Z,95046.4
2019-01-18T01:34:04.351Z,95035.2
2019-01-18T01:35:06.495Z,95041.5
2019-01-18T01:36:08.380Z,95037.8
2019-01-18T01:37:10.804Z,95044.3
2019-01-18T01:38:13.235Z,95041.7
2019-01-18T01:39:15.395Z,95045.9
2019-01-18T01:40:17.816Z,95050.4
2019-01-18T01:41:19.395Z,95047.4
2019-01-18T01:42:21.818Z,95043.1
2019-01-18T01:43:24.241Z,95042.5
2019-01-18T01:44:26.378Z,95044.2
2019-01-18T01:45:28.266Z,95052.8
2019-01-18T01:46:30.413Z,95052
2019-01-18T01:47:32.847Z,95046.4
2019-01-18T01:48:35.269Z,95052.2
2019-01-18T01:49:37.412Z,95053.1
2019-01-18T01:50:39.582Z,95059.9
2019-01-18T01:51:41.737Z,95058.1
2019-01-18T01:52:43.889Z,95060.2
2019-01-18T01:53:46.314Z,95058.9
2019-01-18T01:54:48.464Z,95062.6
2019-01-18T01:55:50.885Z,95064.6
2019-01-18T01:56:53.303Z,95067.1
2019-01-18T01:57:55.731Z,95062.3
2019-01-18T01:58:58.151Z,95056
2019-01-18T01:59:59.751Z,95062.4
2019-01-18T02:01:02.175Z,95068.2
2019-01-18T02:02:04.362Z,95071.7
2019-01-18T02:03:06.788Z,95070
2019-01-18T02:04:09.213Z,95075.4
2019-01-18T02:05:11.639Z,95074
2019-01-18T02:06:14.065Z,95075.3
2019-01-18T02:07:16.490Z,95076.6
2019-01-18T02:08:18.939Z,95076.1
2019-01-18T02:09:21.363Z,95080.4
2019-01-18T02:10:23.255Z,95083
2019-01-18T02:11:25.454Z,95085.3
2019-01-18T02:12:27.580Z,95090.1
2019-01-18T02:13:29.451Z,95086.9
2019-01-18T02:14:31.874Z,95092.4
2019-01-18T02:15:34.309Z,95094.7
2019-01-18T02:16:36.734Z,95097
2019-01-18T02:17:38.612Z,95095.9
2019-01-18T02:18:41.038Z,95100.6
2019-01-18T02:19:43.471Z,95102.4
2019-01-18T02:20:45.616Z,95100.1
2019-01-18T02:21:47.783Z,95094.4
2019-01-18T02:22:50.239Z,95095.2
2019-01-18T02:23:52.649Z,95093.8
2019-01-18T02:24:55.069Z,95094.2
2019-01-18T02:25:57.225Z,95093.3
2019-01-18T02:26:59.376Z,95100.5
2019-01-18T02:28:01.810Z,95102.6
2019-01-18T02:29:04.234Z,95103.3
2019-01-18T02:30:06.666Z,95105.4
2019-01-18T02:31:09.096Z,95108.8
2019-01-18T02:32:11.256Z,95113.1
2019-01-18T02:33:13.425Z,95114.5
2019-01-18T02:34:15.879Z,95116.5
2019-01-18T02:35:18.024Z,95120.4
2019-01-18T02:36:20.453Z,95117.2
2019-01-18T02:37:22.603Z,95118.3
2019-01-18T02:38:25.037Z,95116
2019-01-18T02:39:27.160Z,95111.8
2019-01-18T02:40:29.313Z,95113.9
2019-01-18T02:41:31.433Z,95115.5
2019-01-18T02:42:33.295Z,95113.4
2019-01-18T02:43:35.723Z,95113.6
2019-01-18T02:44:38.153Z,95113.3
2019-01-18T02:45:40.303Z,95113.4
2019-01-18T02:46:42.456Z,95117.2
2019-01-18T02:47:44.866Z,95119.9
2019-01-18T02:48:47.288Z,95121.8
2019-01-18T02:49:49.439Z,95118.1
2019-01-18T02:50:51.865Z,95121.4
2019-01-18T02:51:54.296Z,95121.8
2019-01-18T02:52:56.732Z,95131
2019-01-18T02:53:59.175Z,95128.7
2019-01-18T02:55:01.613Z,95127.4
2019-01-18T02:56:04.034Z,95126.8
2019-01-18T02:57:05.623Z,95127
2019-01-18T02:58:08.045Z,95131.4
2019-01-18T02:59:10.465Z,95130.2
2019-01-18T03:00:12.891Z,95134.4
2019-01-18T03:01:15.324Z,95131.1
2019-01-18T03:02:17.745Z,95134.7
2019-01-18T03:03:20.181Z,95133
2019-01-18T03:04:22.613Z,95133.1
2019-01-18T03:05:25.045Z,95133.4
2019-01-18T03:06:27.172Z,95129.5
2019-01-18T03:07:29.598Z,95134.3
2019-01-18T03:08:31.750Z,95132.3
2019-01-18T03:09:34.175Z,95133.4
2019-01-18T03:10:36.335Z,95134.2
2019-01-18T03:11:38.755Z,95130
2019-01-18T03:12:41.176Z,95129.5
2019-01-18T03:13:43.064Z,95132.4
2019-01-18T03:14:44.946Z,95129.3
2019-01-18T03:15:47.383Z,95126.1
2019-01-18T03:16:49.525Z,95125
2019-01-18T03:17:51.675Z,95121.9
2019-01-18T03:18:53.818Z,95117.6
2019-01-18T03:19:56.238Z,95121.4
2019-01-18T03:20:58.667Z,95126.3
2019-01-18T03:22:01.093Z,95123.6
2019-01-18T03:23:03.521Z,95127.3
2019-01-18T03:24:05.942Z,95131.7
2019-01-18T03:25:08.367Z,95132.3
2019-01-18T03:26:10.508Z,95134.9
2019-01-18T03:27:12.940Z,95133.8
2019-01-18T03:28:15.359Z,95134.7
2019-01-18T03:29:17.780Z,95136.6
2019-01-18T03:30:22.632Z,95132.9
2019-01-18T03:31:25.071Z,95132.9
2019-01-18T03:32:27.493Z,95137.1
2019-01-18T03:33:29.681Z,95134.9
2019-01-18T03:34:32.095Z,95143.1
2019-01-18T03:35:34.238Z,95147.9
2019-01-18T03:36:36.385Z,95154.8
2019-01-18T03:37:38.529Z,95151.8
2019-01-18T03:38:40.675Z,95150
2019-01-18T03:39:43.107Z,95154.9
2019-01-18T03:40:45.535Z,95156.7
2019-01-18T03:41:47.686Z,95159.6
2019-01-18T03:42:49.837Z,95163.9
2019-01-18T03:43:52.263Z,95165.7
2019-01-18T03:44:54.702Z,95163.5
2019-01-18T03:45:57.129Z,95165.3
2019-01-18T03:46:59.011Z,95166.9
2019-01-18T03:48:01.438Z,95164.1
2019-01-18T03:49:03.856Z,95164.6
2019-01-18T03:50:06.279Z,95171.4
2019-01-18T03:51:08.424Z,95171.8
2019-01-18T03:52:10.586Z,95171.8
2019-01-18T03:53:12.726Z,95177.9
2019-01-18T03:54:15.144Z,95176
2019-01-18T03:55:17.320Z,95180.5
2019-01-18T03:56:19.739Z,95178.1
2019-01-18T03:57:22.170Z,95183
2019-01-18T03:58:24.072Z,95186.3
2019-01-18T03:59:26.237Z,95184.8
2019-01-18T04:00:28.400Z,95186.4
2019-01-18T04:01:30.819Z,95189.3
2019-01-18T04:02:33.244Z,95192.8
2019-01-18T04:03:35.121Z,95192.2
2019-01-18T04:04:37.545Z,95194.4
2019-01-18T04:05:39.706Z,95198.7
2019-01-18T04:06:41.852Z,95198.3
2019-01-18T04:07:44.265Z,95203.4
2019-01-18T04:08:46.429Z,95203.2
2019-01-18T04:09:48.852Z,95204
2019-01-18T04:10:51.021Z,95207.4
2019-01-18T04:11:53.179Z,95204.9
2019-01-18T04:12:55.042Z,95209.7
2019-01-18T04:13:57.475Z,95213.9
2019-01-18T04:14:59.898Z,95212.6
2019-01-18T04:16:02.172Z,95211.5
2019-01-18T04:17:04.595Z,95210.9
2019-01-18T04:18:07.038Z,95212.3
2019-01-18T04:19:09.461Z,95213.9
2019-01-18T04:20:11.894Z,95213.7
2019-01-18T04:21:14.329Z,95208.1
2019-01-18T04:22:16.757Z,95209.5
2019-01-18T04:23:19.190Z,95208.9
2019-01-18T04:24:21.638Z,95212.8
2019-01-18T04:25:23.791Z,95211.5
2019-01-18T04:26:25.925Z,95215.9
2019-01-18T04:27:27.808Z,95217.7
2019-01-18T04:28:29.955Z,95216.9
2019-01-18T04:29:32.095Z,95218.5
2019-01-18T04:30:35.298Z,95217.4
2019-01-18T04:31:37.717Z,95220.4
2019-01-18T04:32:40.149Z,95223.7
2019-01-18T04:33:42.274Z,95223.5
2019-01-18T04:34:44.778Z,95221
2019-01-18T04:35:47.242Z,95229.5
2019-01-18T04:36:49.127Z,95229.6
2019-01-18T04:37:51.573Z,95232.1
2019-01-18T04:38:54.004Z,95229.9
2019-01-18T04:39:56.162Z,95232.9
2019-01-18T04:40:58.321Z,95229.1
2019-01-18T04:42:00.748Z,95240.4
2019-01-18T04:43:02.621Z,95244
2019-01-18T04:44:04.518Z,95244
2019-01-18T04:45:06.668Z,95245.9
2019-01-18T04:46:09.106Z,95252.2
2019-01-18T04:47:11.276Z,95252.7
2019-01-18T04:48:13.712Z,95249.9
2019-01-18T04:49:16.152Z,95255.8
2019-01-18T04:50:18.342Z,95255.8
2019-01-18T04:51:20.776Z,95256.4
2019-01-18T04:52:23.250Z,95267.4
2019-01-18T04:53:25.417Z,95261.8
2019-01-18T04:54:27.848Z,95264.4
2019-01-18T04:55:29.492Z,95265.6
2019-01-18T04:56:31.642Z,95269.8
2019-01-18T04:57:34.067Z,95273
2019-01-18T04:58:35.946Z,95272
2019-01-18T04:59:38.382Z,95270.1
2019-01-18T05:00:42.811Z,95270.7
2019-01-18T05:01:45.233Z,95270.1
2019-01-18T05:02:47.386Z,95278.2
2019-01-18T05:03:49.811Z,95280.3
2019-01-18T05:04:51.996Z,95281.3
2019-01-18T05:05:54.434Z,95277.8
2019-01-18T05:06:56.596Z,95282.7
2019-01-18T05:07:59.096Z,95282.4
2019-01-18T05:09:01.616Z,95282.5
2019-01-18T05:10:04.094Z,95288.9
2019-01-18T05:11:06.546Z,95287.3
2019-01-18T05:12:08.724Z,95290.3
2019-01-18T05:13:10.875Z,95298.5
2019-01-18T05:14:13.026Z,95300.4
2019-01-18T05:15:15.445Z,95295.3
2019-01-18T05:16:17.592Z,95301.4
2019-01-18T05:17:20.018Z,95303.6
2019-01-18T05:18:22.472Z,95302.5
2019-01-18T05:19:24.894Z,95304.3
2019-01-18T05:20:27.049Z,95310
2019-01-18T05:21:29.474Z,95312.3
2019-01-18T05:22:31.635Z,95311.7
2019-01-18T05:23:34.078Z,95314.8
2019-01-18T05:24:36.253Z,95312.7
2019-01-18T05:25:38.411Z,95314.5
2019-01-18T05:26:40.552Z,95314.6
2019-01-18T05:27:42.970Z,95320.3
2019-01-18T05:28:45.395Z,95322.7
2019-01-18T05:29:47.564Z,95326
2019-01-18T05:30:49.981Z,95323.9
2019-01-18T05:31:52.455Z,95331.6
2019-01-18T05:32:54.613Z,95331.5
2019-01-18T05:33:56.783Z,95337.2
2019-01-18T05:34:59.224Z,95336.5
2019-01-18T05:36:01.382Z,95338
2019-01-18T05:37:03.814Z,95342.5
2019-01-18T05:38:06.248Z,95344.9
2019-01-18T05:39:08.404Z,95342.6
2019-01-18T05:40:10.872Z,95346.5
2019-01-18T05:41:12.763Z,95342.7
2019-01-18T05:42:15.193Z,95345.1
2019-01-18T05:43:17.344Z,95347
2019-01-18T05:44:19.216Z,95348.9
2019-01-18T05:45:21.386Z,95355.9
2019-01-18T05:46:23.811Z,95356.2
2019-01-18T05:47:25.967Z,95355
2019-01-18T05:48:28.407Z,95358
2019-01-18T05:49:30.564Z,95360.1
2019-01-18T05:50:32.723Z,95360.9
2019-01-18T05:51:34.874Z,95360.7
2019-01-18T05:52:37.034Z,95362.3
2019-01-18T05:53:39.188Z,95365
2019-01-18T05:54:41.613Z,95366.4
2019-01-18T05:55:43.765Z,95372.6
2019-01-18T05:56:46.186Z,95373.8
2019-01-18T05:57:48.082Z,95375.5
2019-01-18T05:58:50.494Z,95374.2
2019-01-18T05:59:52.375Z,95380.2
2019-01-18T06:01:59.500Z,95382.2
2019-01-18T06:03:01.667Z,95387.3
2019-01-18T06:04:03.826Z,95383.3
2019-01-18T06:05:05.976Z,95389.6
2019-01-18T06:06:08.415Z,95388.9
2019-01-18T06:07:10.593Z,95387.8
2019-01-18T06:08:12.774Z,95395.6
2019-01-18T06:09:15.234Z,95399.5
2019-01-18T06:10:17.678Z,95401.3
2019-01-18T06:11:19.575Z,95398.6
2019-01-18T06:12:22.015Z,95406.1
2019-01-18T06:13:24.170Z,95406
2019-01-18T06:14:26.331Z,95408.1
2019-01-18T06:15:28.502Z,95408
2019-01-18T06:16:30.666Z,95407.7
2019-01-18T06:17:33.086Z,95406.4
2019-01-18T06:18:35.239Z,95408.5
2019-01-18T06:19:37.141Z,95415.6
2019-01-18T06:20:39.592Z,95417
2019-01-18T06:21:41.995Z,95417
2019-01-18T06:22:43.862Z,95411.2
2019-01-18T06:23:46.031Z,95413.6
2019-01-18T06:24:48.470Z,95422.3
2019-01-18T06:25:50.894Z,95422.4
2019-01-18T06:26:53.043Z,95422.2
2019-01-18T06:27:55.473Z,95422
2019-01-18T06:28:57.089Z,95424.1
2019-01-18T06:29:59.520Z,95423.8
2019-01-18T06:31:03.355Z,95424.4
2019-01-18T06:32:05.497Z,95425.9
2019-01-18T06:33:07.922Z,95425.8
2019-01-18T06:34:10.344Z,95420.9
2019-01-18T06:35:12.498Z,95421.6
2019-01-18T06:36:14.922Z,95424.4
2019-01-18T06:37:17.079Z,95426.8
2019-01-18T06:38:19.510Z,95428.8
2019-01-18T06:39:21.947Z,95430.9
2019-01-18T06:40:24.096Z,95428.8
2019-01-18T06:41:26.524Z,95430.5
2019-01-18T06:42:28.941Z,95434.8
2019-01-18T06:43:31.098Z,95437
2019-01-18T06:44:33.262Z,95439.1
2019-01-18T06:45:35.412Z,95438.3
2019-01-18T06:46:37.558Z,95440.1
2019-01-18T06:47:39.717Z,95444.6
2019-01-18T06:48:42.201Z,95444.3
2019-01-18T06:49:44.080Z,95444.4
2019-01-18T06:50:46.511Z,95457.9
2019-01-18T06:51:48.271Z,95459.4
2019-01-18T06:52:50.694Z,95460.3
2019-01-18T06:53:53.137Z,95456.4
2019-01-18T06:54:55.584Z,95456.4
2019-01-18T06:55:57.448Z,95457.9
2019-01-18T06:56:59.871Z,95459.5
2019-01-18T06:58:02.015Z,95462.5
2019-01-18T06:59:04.447Z,95463.5
2019-01-18T07:00:06.880Z,95467.2
2019-01-18T07:01:10.074Z,95468.7
2019-01-18T07:02:12.504Z,95468.6
2019-01-18T07:03:14.933Z,95471.9
2019-01-18T07:04:17.362Z,95471.4
2019-01-18T07:05:19.796Z,95474
2019-01-18T07:06:21.956Z,95480.6
2019-01-18T07:07:24.381Z,95480.6
2019-01-18T07:08:26.269Z,95476.8
2019-01-18T07:09:28.421Z,95484.1
2019-01-18T07:10:30.860Z,95481.4
2019-01-18T07:11:34.733Z,95486.3
2019-01-18T07:12:37.195Z,95486.3
2019-01-18T07:13:39.357Z,95492.6
2019-01-18T07:14:41.551Z,95492.4
2019-01-18T07:15:43.984Z,95493.8
2019-01-18T07:16:45.873Z,95494.2
2019-01-18T07:17:48.311Z,95496.3
2019-01-18T07:18:50.737Z,95499.6
2019-01-18T07:19:52.894Z,95501.5
2019-01-18T07:20:55.324Z,95504.1
2019-01-18T07:21:57.759Z,95503.6
2019-01-18T07:23:00.177Z,95501.8
2019-01-18T07:24:02.595Z,95507
2019-01-18T07:25:04.735Z,95504.8
2019-01-18T07:26:07.164Z,95504.1
2019-01-18T07:27:09.595Z,95507.1
2019-01-18T07:28:12.011Z,95508.3
2019-01-18T07:29:14.178Z,95506.8
2019-01-18T07:30:16.317Z,95508.8
2019-01-18T07:31:18.745Z,95513.3
2019-01-18T07:32:20.896Z,95512.5
2019-01-18T07:33:23.035Z,95517.4
2019-01-18T07:34:25.468Z,95517.3
2019-01-18T07:35:27.341Z,95517.6
2019-01-18T07:36:29.504Z,95516.3
2019-01-18T07:37:31.663Z,95517.3
2019-01-18T07:38:34.112Z,95521.9
2019-01-18T07:39:36.543Z,95521.2
2019-01-18T07:40:38.981Z,95522.8
2019-01-18T07:41:41.151Z,95523.4
2019-01-18T07:42:43.577Z,95527.8
2019-01-18T07:43:45.711Z,95536.1
2019-01-18T07:44:47.885Z,95535.3
2019-01-18T07:45:50.313Z,95538.9
2019-01-18T07:46:52.434Z,95530.3
2019-01-18T07:47:54.863Z,95542.8
2019-01-18T07:48:57.293Z,95539.4
2019-01-18T07:49:59.178Z,95536.9
2019-01-18T07:51:01.597Z,95542.2
2019-01-18T07:52:04.024Z,95543.5
2019-01-18T07:53:06.443Z,95540.5
2019-01-18T07:54:08.586Z,95547.4
2019-01-18T07:55:11.010Z,95543.8
2019-01-18T07:56:13.157Z,95547.3
2019-01-18T07:57:15.575Z,95543.5
2019-01-18T07:58:17.995Z,95545.9
2019-01-18T07:59:20.145Z,95548.6
2019-01-18T08:00:22.570Z,95550.3
2019-01-18T08:01:24.719Z,95555.8
2019-01-18T08:02:26.858Z,95557.2
2019-01-18T08:03:28.457Z,95555.4
2019-01-18T08:04:30.897Z,95557.6
2019-01-18T08:05:33.324Z,95559.4
2019-01-18T08:06:35.489Z,95558.6
2019-01-18T08:07:37.915Z,95562.8
2019-01-18T08:08:40.075Z,95564.4
2019-01-18T08:09:42.499Z,95561.2
2019-01-18T08:10:44.401Z,95566.4
2019-01-18T08:11:46.551Z,95567.5
2019-01-18T08:12:48.968Z,95566.8
2019-01-18T08:13:51.385Z,95569.4
2019-01-18T08:14:53.541Z,95565.2
2019-01-18T08:15:55.973Z,95566.5
2019-01-18T08:16:58.413Z,95571.7
2019-01-18T08:18:00.851Z,95568.1
2019-01-18T08:19:03.290Z,95573
2019-01-18T08:20:05.426Z,95570.6
2019-01-18T08:21:07.578Z,95569.2
2019-01-18T08:22:10.003Z,95579.5
2019-01-18T08:23:12.436Z,95579.5
2019-01-18T08:24:14.863Z,95578.5
2019-01-18T08:25:17.287Z,95577.8
2019-01-18T08:26:19.730Z,95579.1
2019-01-18T08:27:22.158Z,95581.1
2019-01-18T08:28:23.751Z,95582.9
2019-01-18T08:29:26.181Z,95584.5
2019-01-18T08:30:28.044Z,95588.9
2019-01-18T08:31:30.705Z,95582.2
2019-01-18T08:32:32.855Z,95590.3
2019-01-18T08:33:35.273Z,95590.2
2019-01-18T08:34:37.694Z,95592.3
2019-01-18T08:35:40.113Z,95589.6
2019-01-18T08:36:42.549Z,95596.9
2019-01-18T08:37:44.717Z,95593.4
2019-01-18T08:38:46.883Z,95594.7
2019-01-18T08:39:49.010Z,95596.1
2019-01-18T08:40:51.435Z,95596.3
2019-01-18T08:41:53.856Z,95598.6
2019-01-18T08:42:56.014Z,95593
2019-01-18T08:43:58.189Z,95599.9
2019-01-18T08:45:00.714Z,95598.2
2019-01-18T08:46:03.159Z,95601.2
2019-01-18T08:47:05.296Z,95601
2019-01-18T08:48:07.733Z,95598.9
2019-01-18T08:49:09.897Z,95601.9
2019-01-18T08:50:12.317Z,95602.1
2019-01-18T08:51:14.761Z,95603.7
2019-01-18T08:52:16.645Z,95603.7
2019-01-18T08:53:19.069Z,95607.3
2019-01-18T08:54:21.213Z,95602.9
2019-01-18T08:55:23.631Z,95603.7
2019-01-18T08:56:25.555Z,95607.8
2019-01-18T08:57:27.725Z,95605.1
2019-01-18T08:58:30.239Z,95607.7
2019-01-18T08:59:32.362Z,95610.4
2019-01-18T09:00:34.786Z,95608.4
2019-01-18T09:01:37.502Z,95608.1
2019-01-18T09:02:39.935Z,95609.5
2019-01-18T09:03:42.349Z,95610.4
2019-01-18T09:04:44.776Z,95610.5
2019-01-18T09:05:47.215Z,95612.6
2019-01-18T09:06:49.369Z,95614.2
2019-01-18T09:07:51.791Z,95614.4
2019-01-18T09:08:53.932Z,95611.2
2019-01-18T09:09:56.357Z,95614.2
2019-01-18T09:10:58.513Z,95619.3
2019-01-18T09:12:00.656Z,95612.9
2019-01-18T09:13:02.785Z,95617.3
2019-01-18T09:14:04.945Z,95616.8
2019-01-18T09:15:07.122Z,95615.3
2019-01-18T09:16:09.275Z,95616.9
2019-01-18T09:17:11.412Z,95621.4
2019-01-18T09:18:13.864Z,95619.8
2019-01-18T09:19:16.037Z,95625.6
2019-01-18T09:20:18.467Z,95621.2
2019-01-18T09:21:20.920Z,95623.5
2019-01-18T09:22:23.081Z,95622.5
2019-01-18T09:23:25.233Z,95626.8
2019-01-18T09:24:27.674Z,95630.3
2019-01-18T09:25:30.109Z,95627.9
2019-01-18T09:26:32.296Z,95627.6
2019-01-18T09:27:34.726Z,95627.2
2019-01-18T09:28:37.170Z,95633.3
2019-01-18T09:29:39.593Z,95632.9
2019-01-18T09:30:41.772Z,95634.4
2019-01-18T09:31:43.736Z,95633.7
2019-01-18T09:32:45.882Z,95635
2019-01-18T09:33:48.049Z,95633.9
2019-01-18T09:34:50.235Z,95638.3
2019-01-18T09:35:52.365Z,95643.5
2019-01-18T09:36:54.792Z,95640.7
2019-01-18T09:37:56.940Z,95646.5
2019-01-18T09:38:58.819Z,95643.1
2019-01-18T09:40:00.973Z,95646.8
2019-01-18T09:41:03.145Z,95649.1
2019-01-18T09:42:05.570Z,95651.9
2019-01-18T09:43:08.013Z,95645.8
2019-01-18T09:44:10.455Z,95648.8
2019-01-18T09:45:12.615Z,95650.1
2019-01-18T09:46:15.035Z,95653.2
2019-01-18T09:47:17.183Z,95652.5
2019-01-18T09:48:19.665Z,95645.7
2019-01-18T09:49:22.084Z,95647.2
2019-01-18T09:50:24.231Z,95650.6
2019-01-18T09:51:26.653Z,95650.4
2019-01-18T09:52:28.808Z,95644.7
2019-01-18T09:53:30.962Z,95642.1
2019-01-18T09:54:33.393Z,95646.5
2019-01-18T09:55:35.815Z,95645
2019-01-18T09:56:37.962Z,95646.4
2019-01-18T09:57:40.123Z,95643.9
2019-01-18T09:58:42.557Z,95643.1
2019-01-18T09:59:44.985Z,95644
2019-01-18T10:00:47.415Z,95645.3
2019-01-18T10:01:50.718Z,95648
2019-01-18T10:02:52.862Z,95647.7
2019-01-18T10:03:55.303Z,95648
2019-01-18T10:04:57.777Z,95646.9
2019-01-18T10:05:59.636Z,95641.4
2019-01-18T10:07:01.782Z,95649.8
2019-01-18T10:08:03.938Z,95644.9
2019-01-18T10:09:05.525Z,95646.7
2019-01-18T10:10:07.962Z,95647
2019-01-18T10:11:10.391Z,95644.6
2019-01-18T10:12:12.823Z,95646.2
2019-01-18T10:13:14.994Z,95642.1
2019-01-18T10:14:17.427Z,95642.9
2019-01-18T10:15:19.582Z,95644.1
2019-01-18T10:16:21.735Z,95642.8
2019-01-18T10:17:23.611Z,95646.2
2019-01-18T10:18:26.035Z,95644.2
2019-01-18T10:19:28.484Z,95642.4
2019-01-18T10:20:30.922Z,95643.4
2019-01-18T10:21:33.083Z,95637.5
2019-01-18T10:22:35.511Z,95639.8
2019-01-18T10:23:37.931Z,95638.9
2019-01-18T10:24:40.373Z,95639.6
2019-01-18T10:25:42.804Z,95639.5
2019-01-18T10:26:45.245Z,95640.4
2019-01-18T10:27:47.688Z,95640.9
2019-01-18T10:28:49.851Z,95638.7
2019-01-18T10:29:51.468Z,95637.6
2019-01-18T10:30:53.893Z,95634.9
2019-01-18T10:31:57.750Z,95635.1
2019-01-18T10:33:00.163Z,95637.1
2019-01-18T10:34:02.343Z,95638.9
2019-01-18T10:35:04.482Z,95633.6
2019-01-18T10:36:06.351Z,95633
2019-01-18T10:37:08.777Z,95637.4
2019-01-18T10:38:10.911Z,95637.2
2019-01-18T10:39:13.334Z,95637.9
2019-01-18T10:40:15.484Z,95639.8
2019-01-18T10:41:17.366Z,95638.1
2019-01-18T10:42:19.810Z,95632.5
2019-01-18T10:43:22.240Z,95629.8
2019-01-18T10:44:23.885Z,95631.4
2019-01-18T10:45:25.824Z,95632.8
2019-01-18T10:46:27.983Z,95630.5
2019-01-18T10:47:30.410Z,95626.2
2019-01-18T10:48:32.844Z,95625.6
2019-01-18T10:49:34.694Z,95630.9
2019-01-18T10:50:37.130Z,95630.3
2019-01-18T10:51:39.035Z,95634.4
2019-01-18T10:52:41.483Z,95633.2
2019-01-18T10:53:43.914Z,95634.1
2019-01-18T10:54:46.075Z,95628.9
2019-01-18T10:55:48.240Z,95627.1
2019-01-18T10:56:50.374Z,95628.2
2019-01-18T10:57:52.797Z,95627.4
2019-01-18T10:58:54.956Z,95630.8
2019-01-18T10:59:57.394Z,95632.1
2019-01-18T11:00:59.542Z,95627.5
2019-01-18T11:03:06.942Z,95629.3
2019-01-18T11:04:09.084Z,95628
2019-01-18T11:05:11.258Z,95627.7
2019-01-18T11:06:13.410Z,95627.3
2019-01-18T11:07:15.836Z,95628.7
2019-01-18T11:08:19.031Z,95631.1
2019-01-18T11:09:20.910Z,95623.9
2019-01-18T11:10:23.336Z,95627.8
2019-01-18T11:11:25.772Z,95625.4
2019-01-18T11:12:27.899Z,95624.2
2019-01-18T11:13:30.340Z,95626.9
2019-01-18T11:14:32.755Z,95627.9
2019-01-18T11:16:39.613Z,95626
2019-01-18T11:17:42.052Z,95628.7
2019-01-18T11:18:44.215Z,95624.4
2019-01-18T11:19:46.362Z,95625.6
2019-01-18T11:20:51.022Z,95623.5
2019-01-18T11:21:54.941Z,95627.6
2019-01-18T11:22:57.383Z,95627.2
2019-01-18T11:23:59.803Z,95626.8
2019-01-18T11:25:01.676Z,95628.6
2019-01-18T11:26:03.556Z,95624.4
2019-01-18T11:27:05.998Z,95628.2
2019-01-18T11:28:08.126Z,95624
2019-01-18T11:29:09.986Z,95621.5
2019-01-18T11:30:12.436Z,95622.9
2019-01-18T11:31:14.585Z,95616.2
2019-01-18T11:32:17.056Z,95622.8
2019-01-18T11:33:19.206Z,95619.4
2019-01-18T11:34:21.636Z,95620.9
2019-01-18T11:35:24.083Z,95623.7
2019-01-18T11:36:26.245Z,95617.6
2019-01-18T11:37:28.386Z,95621
2019-01-18T11:38:30.812Z,95622.3
2019-01-18T11:39:33.237Z,95618.2
2019-01-18T11:40:35.147Z,95624.7
2019-01-18T11:41:37.277Z,95620.2
2019-01-18T11:42:39.722Z,95617.9
2019-01-18T11:43:41.891Z,95620.2
2019-01-18T11:44:43.796Z,95622.9
2019-01-18T11:45:45.412Z,95615.4
2019-01-18T11:46:47.586Z,95614.1
2019-01-18T11:47:50.018Z,95616.1
2019-01-18T11:48:51.892Z,95612.5
2019-01-18T11:49:54.326Z,95610.9
2019-01-18T11:50:56.190Z,95614.3
2019-01-18T11:51:58.641Z,95614
2019-01-18T11:53:01.081Z,95611
2019-01-18T11:54:03.512Z,95613.3
2019-01-18T11:55:05.409Z,95608.5
2019-01-18T11:56:07.546Z,95607.6
2019-01-18T11:57:09.702Z,95607
2019-01-18T11:58:12.135Z,95610.6
2019-01-18T11:59:14.564Z,95606.8
2019-01-18T12:00:16.990Z,95604.5
2019-01-18T12:01:19.164Z,95611
2019-01-18T12:02:23.419Z,95609.4
2019-01-18T12:03:25.857Z,95609.7
2019-01-18T12:04:28.011Z,95608
2019-01-18T12:05:30.444Z,95605.5
2019-01-18T12:06:32.876Z,95601.6
2019-01-18T12:07:35.028Z,95606.5
2019-01-18T12:08:37.175Z,95604.2
2019-01-18T12:09:43.799Z,95605.6
2019-01-18T12:10:45.926Z,95602
2019-01-18T12:11:48.083Z,95601.7
2019-01-18T12:12:50.502Z,95601.8
2019-01-18T12:13:52.643Z,95600
2019-01-18T12:14:55.072Z,95601.6
2019-01-18T12:15:57.487Z,95600.1
2019-01-18T12:16:59.623Z,95600.3
2019-01-18T12:18:01.501Z,95599.6
2019-01-18T12:19:04.984Z,95602.7
2019-01-18T12:20:07.904Z,95596.7
2019-01-18T12:21:10.350Z,95597.5
2019-01-18T12:22:12.783Z,95595.6
2019-01-18T12:23:15.210Z,95594.7
2019-01-18T12:24:19.014Z,95593.8
2019-01-18T12:25:21.165Z,95594.9
2019-01-18T12:26:23.324Z,95592.8
2019-01-18T12:27:25.753Z,95594.1
2019-01-18T12:28:28.184Z,95589.3
2019-01-18T12:29:30.112Z,95586.9
2019-01-18T12:30:32.531Z,95585.3
2019-01-18T12:31:34.701Z,95587.6
2019-01-18T12:32:36.865Z,95584.1
2019-01-18T12:33:39.307Z,95590.3
2019-01-18T12:34:41.734Z,95586.1
2019-01-18T12:35:44.174Z,95587.9
2019-01-18T12:36:46.617Z,95587
2019-01-18T12:37:48.498Z,95587.3
2019-01-18T12:38:50.094Z,95585
2019-01-18T12:39:52.518Z,95584.7
2019-01-18T12:40:54.681Z,95579.6